Huntington Bay, New York
Current Conditions -  °F | °C
As of 1:53 AM on Sunday 23 Nov 2014 (Local Time) from KFRG Reporting Station
Few Clouds Few Clouds  
Wind Chill: 40°   Ceiling: Unl
Heat Index: 45°   Visibility: 10mi
Dew Point: 23°   Wind: 10mph
Humidity: 42%   Direction: 240°WSW
Pressure: 30.19"   Gusts: NA
Location:  40.8966°N, 73.4362°W
Report Text: KFRG 230653Z AUTO 24009KT 10SM FEW110 07/M05 A3019 RMK AO2 SLP224 T00721050
Loading
Personal Weather Stations






























Interactive Weather Map New forecast layout! Learn more

10-Day Weather Forecast

Advertisements
Track Severe Weather on mobile